createdAt,value
2023-05-17T00:00:01.210Z,9.78
2023-05-17T00:02:32.860Z,9.87
2023-05-17T00:05:02.946Z,9.88
2023-05-17T00:07:32.939Z,9.82
2023-05-17T00:10:03.016Z,9.91
2023-05-17T00:12:32.956Z,9.93
2023-05-17T00:15:02.799Z,9.83
2023-05-17T00:17:32.764Z,9.80
2023-05-17T00:20:02.660Z,9.82
2023-05-17T00:22:32.811Z,9.85
2023-05-17T00:25:02.687Z,9.74
2023-05-17T00:27:32.570Z,9.81
2023-05-17T00:30:02.860Z,9.78
2023-05-17T00:32:32.844Z,9.78
2023-05-17T00:35:02.858Z,9.75
2023-05-17T00:37:32.846Z,9.73
2023-05-17T00:40:02.700Z,9.82
2023-05-17T00:42:32.785Z,9.80
2023-05-17T00:45:02.568Z,9.70
2023-05-17T00:47:33.002Z,9.79
2023-05-17T00:50:03.478Z,9.78
2023-05-17T00:52:33.800Z,9.78
2023-05-17T00:55:04.239Z,9.71
2023-05-17T00:57:34.465Z,9.77
2023-05-17T01:00:05.048Z,9.65
2023-05-17T01:02:34.872Z,9.57
2023-05-17T01:05:05.059Z,9.60
2023-05-17T01:07:35.210Z,9.67
2023-05-17T01:10:06.963Z,9.66
2023-05-17T01:12:51.896Z,9.54
2023-05-17T01:15:24.606Z,9.65
2023-05-17T01:18:11.279Z,9.62
2023-05-17T01:20:49.493Z,9.61
2023-05-17T01:23:24.000Z,9.54
2023-05-17T01:26:05.729Z,9.54
2023-05-17T01:28:37.497Z,9.53
2023-05-17T01:31:09.678Z,9.46
2023-05-17T01:33:40.661Z,9.53
2023-05-17T01:36:10.738Z,9.52
2023-05-17T01:38:41.084Z,9.46
2023-05-17T01:41:32.152Z,9.50
2023-05-17T01:44:05.102Z,9.35
2023-05-17T01:46:43.049Z,9.48
2023-05-17T01:49:18.705Z,9.45
2023-05-17T01:51:59.492Z,9.46
2023-05-17T01:54:35.152Z,9.39
2023-05-17T01:57:08.686Z,9.47
2023-05-17T01:59:41.459Z,9.39
2023-05-17T02:02:11.467Z,9.41
2023-05-17T02:04:41.455Z,9.42
2023-05-17T02:07:11.384Z,9.38
2023-05-17T02:09:41.166Z,9.55
2023-05-17T02:12:10.973Z,9.38
2023-05-17T02:14:40.909Z,9.23
2023-05-17T02:17:10.513Z,9.27
2023-05-17T02:19:40.528Z,9.29
2023-05-17T02:22:10.139Z,9.31
2023-05-17T02:24:40.288Z,9.31
2023-05-17T02:27:10.124Z,9.37
2023-05-17T02:29:39.975Z,9.21
2023-05-17T02:32:09.852Z,9.25
2023-05-17T02:34:39.870Z,9.30
2023-05-17T02:37:09.640Z,9.19
2023-05-17T02:39:39.505Z,9.15
2023-05-17T02:42:10.019Z,9.21
2023-05-17T02:44:40.059Z,9.10
2023-05-17T02:47:09.814Z,9.07
2023-05-17T02:49:40.035Z,9.00
2023-05-17T02:52:09.811Z,9.13
2023-05-17T02:54:40.120Z,9.17
2023-05-17T02:57:10.293Z,9.10
2023-05-17T02:59:40.044Z,8.91
2023-05-17T03:02:09.957Z,8.89
2023-05-17T03:04:40.154Z,8.89
2023-05-17T03:07:11.681Z,8.80
2023-05-17T03:09:42.891Z,8.85
2023-05-17T03:12:12.931Z,8.86
2023-05-17T03:14:42.944Z,8.88
2023-05-17T03:17:13.368Z,8.76
2023-05-17T03:19:43.669Z,8.79
2023-05-17T03:22:13.360Z,8.81
2023-05-17T03:24:44.165Z,8.58
2023-05-17T03:27:14.147Z,8.64
2023-05-17T03:29:45.092Z,8.70
2023-05-17T03:32:14.147Z,8.61
2023-05-17T03:34:43.714Z,8.51
2023-05-17T03:37:13.477Z,8.50
2023-05-17T03:39:43.788Z,8.53
2023-05-17T03:42:13.565Z,8.43
2023-05-17T03:44:44.390Z,8.41
2023-05-17T03:47:15.936Z,8.39
2023-05-17T03:49:46.235Z,8.33
2023-05-17T03:52:16.082Z,8.31
2023-05-17T03:54:48.226Z,8.27
2023-05-17T03:57:19.696Z,8.31
2023-05-17T03:59:49.045Z,8.36
2023-05-17T04:02:21.551Z,8.28
2023-05-17T04:04:53.424Z,8.21
2023-05-17T04:07:23.626Z,8.29
2023-05-17T04:09:53.505Z,8.33
2023-05-17T04:12:25.506Z,8.31
2023-05-17T04:14:55.771Z,8.30
2023-05-17T04:17:26.063Z,8.22
2023-05-17T04:19:56.078Z,8.27
2023-05-17T04:22:26.372Z,8.30
2023-05-17T04:24:56.258Z,8.39
2023-05-17T04:27:27.539Z,8.38
2023-05-17T04:29:58.771Z,8.38
2023-05-17T04:32:29.509Z,8.51
2023-05-17T04:34:59.896Z,8.32
2023-05-17T04:37:29.831Z,8.46
2023-05-17T04:40:02.165Z,8.53
2023-05-17T04:42:32.904Z,8.46
2023-05-17T04:45:02.950Z,8.38
2023-05-17T04:47:32.879Z,8.38
2023-05-17T04:50:04.384Z,8.38
2023-05-17T04:52:34.356Z,8.35
2023-05-17T04:55:05.236Z,8.42
2023-05-17T04:57:35.274Z,8.42
2023-05-17T05:00:10.710Z,8.44
2023-05-17T05:02:42.313Z,8.37
2023-05-17T05:05:12.482Z,8.43
2023-05-17T05:07:42.522Z,8.45
2023-05-17T05:10:12.565Z,8.52
2023-05-17T05:12:44.950Z,8.59
2023-05-17T05:15:15.078Z,8.58
2023-05-17T05:17:46.760Z,8.64
2023-05-17T05:20:17.410Z,8.83
2023-05-17T05:22:47.522Z,8.83
2023-05-17T05:25:18.893Z,8.95
2023-05-17T05:27:48.763Z,8.98
2023-05-17T05:30:20.495Z,9.05
2023-05-17T05:32:54.015Z,9.05
2023-05-17T05:35:26.127Z,9.11
2023-05-17T05:37:56.707Z,9.28
2023-05-17T05:40:26.225Z,9.35
2023-05-17T05:42:56.574Z,9.29
2023-05-17T05:45:26.428Z,9.34
2023-05-17T05:47:58.104Z,9.54
2023-05-17T05:50:28.288Z,9.54
2023-05-17T05:53:14.500Z,9.51
2023-05-17T05:55:33.214Z,9.57
2023-05-17T05:58:03.078Z,9.74
2023-05-17T06:00:33.206Z,9.76
2023-05-17T06:03:03.161Z,9.85
2023-05-17T06:05:33.232Z,10.01
2023-05-17T06:08:03.311Z,10.10
2023-05-17T06:10:33.393Z,9.86
2023-05-17T06:13:03.365Z,10.02
2023-05-17T06:15:33.667Z,9.97
2023-05-17T06:18:03.558Z,10.05
2023-05-17T06:20:33.898Z,10.09
2023-05-17T06:23:05.158Z,10.11
2023-05-17T06:25:35.349Z,9.99
2023-05-17T06:28:05.766Z,10.08
2023-05-17T06:30:35.612Z,10.18
2023-05-17T06:33:06.494Z,10.06
2023-05-17T06:35:47.883Z,10.23
2023-05-17T06:38:08.686Z,10.30
2023-05-17T06:40:38.551Z,10.28
2023-05-17T06:43:08.371Z,10.21
2023-05-17T06:45:38.301Z,10.42
2023-05-17T06:48:08.511Z,10.49
2023-05-17T06:50:39.295Z,10.40
2023-05-17T06:53:09.425Z,10.50
2023-05-17T06:55:39.193Z,10.39
2023-05-17T06:58:08.879Z,10.43
2023-05-17T07:00:38.723Z,10.53
2023-05-17T07:03:08.843Z,10.46
2023-05-17T07:05:38.874Z,10.54
2023-05-17T07:08:08.836Z,10.52
2023-05-17T07:10:38.725Z,10.49
2023-05-17T07:13:08.724Z,10.59
2023-05-17T07:15:39.410Z,10.59
2023-05-17T07:18:09.071Z,10.69
2023-05-17T07:20:38.997Z,10.41
2023-05-17T07:23:08.818Z,10.50
2023-05-17T07:25:40.656Z,10.53
2023-05-17T07:28:10.349Z,10.52
2023-05-17T07:30:44.263Z,10.55
2023-05-17T07:33:13.906Z,10.67
2023-05-17T07:35:43.870Z,10.65
2023-05-17T07:38:14.505Z,10.58
2023-05-17T07:40:44.374Z,10.44
2023-05-17T07:43:14.268Z,10.55
2023-05-17T07:45:47.171Z,10.62
2023-05-17T07:48:16.917Z,10.62
2023-05-17T07:50:46.924Z,10.74
2023-05-17T07:53:16.675Z,10.85
2023-05-17T07:55:49.394Z,10.89
2023-05-17T07:58:19.120Z,11.09
2023-05-17T08:00:49.481Z,10.95
2023-05-17T08:03:19.343Z,10.99
2023-05-17T08:05:49.274Z,10.99
2023-05-17T08:08:19.406Z,10.87
2023-05-17T08:10:49.809Z,10.96
2023-05-17T08:13:20.533Z,11.06
2023-05-17T08:15:53.616Z,11.33
2023-05-17T08:18:22.073Z,11.33
2023-05-17T08:20:51.823Z,11.33
2023-05-17T08:23:21.720Z,11.11
2023-05-17T08:25:51.683Z,11.34
2023-05-17T08:28:22.364Z,11.10
2023-05-17T08:30:52.246Z,11.12
2023-05-17T08:33:23.408Z,11.20
2023-05-17T08:35:55.517Z,11.13
2023-05-17T08:38:25.534Z,10.97
2023-05-17T08:40:56.465Z,10.93
2023-05-17T08:43:27.799Z,11.03
2023-05-17T08:45:58.238Z,10.99
2023-05-17T08:48:30.073Z,11.04
2023-05-17T08:51:01.496Z,11.04
2023-05-17T08:53:30.569Z,11.04
2023-05-17T08:56:02.475Z,11.09
2023-05-17T08:58:52.190Z,11.07
2023-05-17T09:01:13.121Z,11.18
2023-05-17T09:03:42.970Z,11.04
2023-05-17T09:06:13.868Z,11.04
2023-05-17T09:08:44.368Z,11.07
2023-05-17T09:11:14.090Z,11.13
2023-05-17T09:13:43.954Z,11.23
2023-05-17T09:16:17.746Z,11.23
2023-05-17T09:18:56.251Z,11.37
2023-05-17T09:21:27.463Z,11.72
2023-05-17T09:24:06.211Z,11.72
2023-05-17T09:26:44.578Z,11.79
2023-05-17T09:29:16.490Z,11.56
2023-05-17T09:31:46.453Z,11.66
2023-05-17T09:34:19.368Z,11.60
2023-05-17T09:36:49.076Z,11.81
2023-05-17T09:39:19.091Z,11.89
2023-05-17T09:41:51.228Z,12.01
2023-05-17T09:44:21.338Z,12.05
2023-05-17T09:46:52.888Z,12.00
2023-05-17T09:49:22.997Z,11.90
2023-05-17T09:51:52.918Z,11.85
2023-05-17T09:54:23.006Z,11.77
2023-05-17T09:56:56.265Z,11.78
2023-05-17T09:59:29.757Z,11.81
2023-05-17T10:02:02.262Z,11.83
2023-05-17T10:04:34.440Z,11.71
2023-05-17T10:07:05.671Z,11.71
2023-05-17T10:09:37.254Z,11.94
2023-05-17T10:12:10.371Z,12.01
2023-05-17T10:14:41.160Z,11.97
2023-05-17T10:17:12.738Z,12.04
2023-05-17T10:19:44.247Z,12.04
2023-05-17T10:22:22.389Z,12.16
2023-05-17T10:24:49.345Z,12.32
2023-05-17T10:27:19.466Z,12.24
2023-05-17T10:29:51.040Z,12.31
2023-05-17T10:32:23.621Z,12.48
2023-05-17T10:35:09.560Z,12.37
2023-05-17T10:37:27.818Z,12.38
2023-05-17T10:39:58.230Z,12.46
2023-05-17T10:42:28.760Z,12.31
2023-05-17T10:44:58.677Z,12.46
2023-05-17T10:47:35.077Z,12.23
2023-05-17T10:50:09.267Z,12.34
2023-05-17T10:52:41.884Z,12.52
2023-05-17T10:55:12.302Z,12.53
2023-05-17T10:57:50.933Z,12.62
2023-05-17T11:00:16.640Z,12.62
2023-05-17T11:02:48.205Z,12.71
2023-05-17T11:05:28.218Z,12.73
2023-05-17T11:08:08.804Z,12.77
2023-05-17T11:10:38.598Z,12.68
2023-05-17T11:13:28.503Z,12.64
2023-05-17T11:16:08.789Z,12.64
2023-05-17T11:18:50.014Z,12.82
2023-05-17T11:21:21.356Z,12.71
2023-05-17T11:23:54.270Z,13.04
2023-05-17T11:26:26.535Z,13.17
2023-05-17T11:29:02.935Z,13.16
2023-05-17T11:31:34.738Z,12.93
2023-05-17T11:34:06.668Z,12.88
2023-05-17T11:36:51.732Z,12.70
2023-05-17T11:39:23.268Z,12.71
2023-05-17T11:41:55.549Z,12.80
2023-05-17T11:44:34.691Z,12.68
2023-05-17T11:47:07.084Z,12.74
2023-05-17T11:49:39.407Z,12.77
2023-05-17T11:52:09.480Z,12.77
2023-05-17T11:54:42.445Z,12.62
2023-05-17T11:57:15.726Z,12.61
2023-05-17T11:59:45.690Z,12.63
2023-05-17T12:02:28.962Z,12.54
2023-05-17T12:05:00.718Z,12.61
2023-05-17T12:07:30.537Z,12.56
2023-05-17T12:10:00.369Z,12.54
2023-05-17T12:12:30.945Z,12.59
2023-05-17T12:15:01.187Z,12.76
2023-05-17T12:17:34.256Z,12.62
2023-05-17T12:20:10.786Z,12.99
2023-05-17T12:22:57.649Z,12.77
2023-05-17T12:25:29.609Z,12.72
2023-05-17T12:28:22.892Z,12.50
2023-05-17T12:31:01.916Z,12.48
2023-05-17T12:33:37.558Z,12.50
2023-05-17T12:36:08.787Z,12.50
2023-05-17T12:38:41.062Z,12.68
2023-05-17T12:41:13.390Z,12.82
2023-05-17T12:43:46.551Z,12.79
2023-05-17T12:46:19.000Z,12.75
2023-05-17T12:48:50.566Z,12.65
2023-05-17T12:51:23.550Z,12.72
2023-05-17T12:53:54.957Z,12.75
2023-05-17T12:56:24.810Z,12.71
2023-05-17T12:59:17.613Z,12.79
2023-05-17T13:01:50.340Z,12.82
2023-05-17T13:04:21.475Z,12.75
2023-05-17T13:06:54.877Z,12.72
2023-05-17T13:09:26.386Z,12.82
2023-05-17T13:11:58.632Z,12.81
2023-05-17T13:14:46.989Z,12.64
2023-05-17T13:17:29.173Z,12.38
2023-05-17T13:19:58.522Z,12.62
2023-05-17T13:22:28.967Z,12.49
2023-05-17T13:24:59.135Z,12.68
2023-05-17T13:27:29.802Z,12.68
2023-05-17T13:29:59.460Z,12.70
2023-05-17T13:32:30.568Z,12.84
2023-05-17T13:35:02.077Z,13.00
2023-05-17T13:37:31.998Z,13.02
2023-05-17T13:40:02.173Z,12.99
2023-05-17T13:42:32.167Z,12.99
2023-05-17T13:45:02.055Z,12.83
2023-05-17T13:47:32.616Z,13.03
2023-05-17T13:50:03.985Z,13.28
2023-05-17T13:52:33.677Z,13.30
2023-05-17T13:55:03.614Z,13.26
2023-05-17T13:57:33.791Z,13.04
2023-05-17T14:00:05.739Z,13.04
2023-05-17T14:02:37.164Z,12.84
2023-05-17T14:05:07.438Z,12.98
2023-05-17T14:07:39.205Z,13.13
2023-05-17T14:10:12.673Z,13.01
2023-05-17T14:12:43.705Z,12.90
2023-05-17T14:15:13.617Z,12.96
2023-05-17T14:17:43.622Z,12.96
2023-05-17T14:20:14.313Z,12.96
2023-05-17T14:22:44.260Z,12.78
2023-05-17T14:25:14.731Z,12.65
2023-05-17T14:27:44.308Z,12.59
2023-05-17T14:30:15.114Z,12.72
2023-05-17T14:32:45.013Z,12.79
2023-05-17T14:35:17.622Z,12.84
2023-05-17T14:37:47.558Z,12.95
2023-05-17T14:40:17.519Z,12.94
2023-05-17T14:42:47.509Z,12.87
2023-05-17T14:45:17.112Z,12.80
2023-05-17T14:47:47.220Z,12.83
2023-05-17T14:50:17.891Z,12.90
2023-05-17T14:52:47.781Z,12.87
2023-05-17T14:55:17.839Z,12.84
2023-05-17T14:57:47.798Z,12.95
2023-05-17T15:00:18.713Z,13.00
2023-05-17T15:02:47.988Z,13.16
2023-05-17T15:05:18.884Z,13.08
2023-05-17T15:07:49.015Z,13.12
2023-05-17T15:10:20.019Z,12.99
2023-05-17T15:12:49.931Z,13.11
2023-05-17T15:15:21.350Z,13.07
2023-05-17T15:17:51.966Z,13.10
2023-05-17T15:20:22.863Z,13.04
2023-05-17T15:22:52.984Z,13.08
2023-05-17T15:25:24.693Z,13.05
2023-05-17T15:27:55.498Z,13.08
2023-05-17T15:30:26.178Z,13.08
2023-05-17T15:32:59.044Z,13.21
2023-05-17T15:35:29.414Z,12.74
2023-05-17T15:38:00.117Z,12.87
2023-05-17T15:40:32.219Z,12.96
2023-05-17T15:43:02.176Z,12.85
2023-05-17T15:45:32.487Z,12.93
2023-05-17T15:48:02.910Z,13.04
2023-05-17T15:50:33.106Z,12.80
2023-05-17T15:53:02.958Z,12.75
2023-05-17T15:55:32.833Z,12.75
2023-05-17T15:58:03.078Z,12.91
2023-05-17T16:00:33.000Z,12.93
2023-05-17T16:03:03.794Z,12.90
2023-05-17T16:05:33.750Z,13.08
2023-05-17T16:08:03.568Z,12.91
2023-05-17T16:10:33.548Z,12.84
2023-05-17T16:13:04.024Z,12.61
2023-05-17T16:15:34.266Z,12.85
2023-05-17T16:18:04.280Z,12.78
2023-05-17T16:20:36.093Z,12.83
2023-05-17T16:23:07.559Z,12.75
2023-05-17T16:25:37.650Z,12.75
2023-05-17T16:28:07.491Z,12.84
2023-05-17T16:30:38.043Z,12.73
2023-05-17T16:33:09.091Z,12.72
2023-05-17T16:35:42.784Z,12.70
2023-05-17T16:38:12.346Z,12.62
2023-05-17T16:40:42.616Z,12.69
2023-05-17T16:43:15.987Z,12.65
2023-05-17T16:45:47.216Z,12.48
2023-05-17T16:48:17.614Z,12.60
2023-05-17T16:50:48.902Z,12.60
2023-05-17T16:53:19.937Z,12.53
2023-05-17T16:55:49.823Z,12.55
2023-05-17T16:58:19.602Z,12.46
2023-05-17T17:00:51.792Z,12.33
2023-05-17T17:03:21.413Z,12.36
2023-05-17T17:05:52.353Z,12.35
2023-05-17T17:08:22.212Z,12.49
2023-05-17T17:10:52.090Z,12.38
2023-05-17T17:13:22.036Z,12.40
2023-05-17T17:15:52.532Z,12.37
2023-05-17T17:18:22.316Z,12.10
2023-05-17T17:20:52.218Z,12.13
2023-05-17T17:23:21.958Z,12.07
2023-05-17T17:25:51.859Z,12.14
2023-05-17T17:28:22.670Z,11.87
2023-05-17T17:30:52.554Z,11.91
2023-05-17T17:33:22.563Z,11.86
2023-05-17T17:35:54.365Z,11.82
2023-05-17T17:38:24.305Z,11.74
2023-05-17T17:40:54.201Z,11.72
2023-05-17T17:43:24.754Z,11.64
2023-05-17T17:45:54.607Z,11.60
2023-05-17T17:48:26.371Z,11.54
2023-05-17T17:51:00.187Z,11.44
2023-05-17T17:53:31.240Z,11.31
2023-05-17T17:56:01.198Z,11.26
2023-05-17T17:58:32.038Z,11.17
2023-05-17T18:01:02.618Z,11.18
2023-05-17T18:03:32.288Z,10.98
2023-05-17T18:06:04.586Z,10.98
2023-05-17T18:08:34.455Z,11.10
2023-05-17T18:11:04.383Z,10.89
2023-05-17T18:13:35.236Z,10.75
2023-05-17T18:16:05.526Z,10.72
2023-05-17T18:18:36.948Z,10.52
2023-05-17T18:21:07.758Z,10.52
2023-05-17T18:23:37.734Z,10.66
2023-05-17T18:26:07.599Z,10.36
2023-05-17T18:28:42.456Z,10.32
2023-05-17T18:31:10.216Z,10.06
2023-05-17T18:33:41.952Z,9.99
2023-05-17T18:36:17.846Z,9.94
2023-05-17T18:38:49.757Z,9.88
2023-05-17T18:41:19.822Z,10.00
2023-05-17T18:43:51.498Z,10.09
2023-05-17T18:46:22.088Z,10.09
2023-05-17T18:48:53.019Z,10.05
2023-05-17T18:51:22.890Z,9.73
2023-05-17T18:53:53.712Z,9.55
2023-05-17T18:56:25.231Z,9.44
2023-05-17T18:58:55.514Z,9.45
2023-05-17T19:01:28.004Z,9.40
2023-05-17T19:03:58.347Z,9.29
2023-05-17T19:06:28.068Z,9.23
2023-05-17T19:08:59.692Z,9.23
2023-05-17T19:11:29.616Z,9.21
2023-05-17T19:14:00.023Z,9.21
2023-05-17T19:16:31.246Z,9.20
2023-05-17T19:19:00.893Z,9.14
2023-05-17T19:21:31.127Z,9.14
2023-05-17T19:24:01.346Z,9.16
2023-05-17T19:26:31.546Z,9.18
2023-05-17T19:29:03.324Z,9.49
2023-05-17T19:31:34.334Z,9.49
2023-05-17T19:34:04.236Z,9.54
2023-05-17T19:36:34.455Z,9.21
2023-05-17T19:39:04.612Z,9.07
2023-05-17T19:41:37.801Z,9.01
2023-05-17T19:44:07.748Z,8.97
2023-05-17T19:46:38.612Z,8.93
2023-05-17T19:49:08.600Z,8.94
2023-05-17T19:51:38.787Z,8.90
2023-05-17T19:54:08.720Z,8.87
2023-05-17T19:56:38.808Z,8.87
2023-05-17T19:59:08.717Z,8.86
2023-05-17T20:01:38.608Z,8.83
2023-05-17T20:04:10.276Z,8.81
2023-05-17T20:06:40.371Z,8.76
2023-05-17T20:09:09.932Z,8.76
2023-05-17T20:11:39.932Z,8.85
2023-05-17T20:14:11.757Z,8.98
2023-05-17T20:16:41.982Z,8.81
2023-05-17T20:19:11.662Z,8.77
2023-05-17T20:21:42.088Z,8.75
2023-05-17T20:24:11.912Z,9.00
2023-05-17T20:26:43.544Z,9.00
2023-05-17T20:29:14.425Z,9.05
2023-05-17T20:31:44.337Z,9.13
2023-05-17T20:34:13.893Z,9.11
2023-05-17T20:36:48.050Z,8.79
2023-05-17T20:39:19.159Z,8.67
2023-05-17T20:41:51.503Z,8.71
2023-05-17T20:44:25.880Z,8.70
2023-05-17T20:46:57.463Z,8.48
2023-05-17T20:49:27.356Z,8.68
2023-05-17T20:52:04.580Z,8.71
2023-05-17T20:54:35.552Z,8.80
2023-05-17T20:57:06.605Z,8.80
2023-05-17T20:59:37.637Z,8.44
2023-05-17T21:02:07.096Z,8.23
2023-05-17T21:04:38.846Z,8.27
2023-05-17T21:07:10.486Z,8.32
2023-05-17T21:09:40.488Z,8.42
2023-05-17T21:12:10.340Z,8.41
2023-05-17T21:14:40.283Z,8.45
2023-05-17T21:17:12.004Z,8.41
2023-05-17T21:19:41.873Z,8.50
2023-05-17T21:22:11.536Z,8.52
2023-05-17T21:24:41.420Z,8.52
2023-05-17T21:27:11.097Z,8.61
2023-05-17T21:29:40.956Z,8.61
2023-05-17T21:32:10.882Z,8.69
2023-05-17T21:34:42.514Z,8.76
2023-05-17T21:37:12.346Z,8.76
2023-05-17T21:39:42.298Z,8.95
2023-05-17T21:42:12.166Z,8.86
2023-05-17T21:44:42.024Z,8.89
2023-05-17T21:47:12.561Z,8.91
2023-05-17T21:49:42.472Z,8.81
2023-05-17T21:52:12.387Z,9.04
2023-05-17T21:54:42.260Z,8.99
2023-05-17T21:57:11.940Z,9.09
2023-05-17T21:59:41.799Z,8.97
2023-05-17T22:02:11.345Z,8.96
2023-05-17T22:04:41.651Z,9.03
2023-05-17T22:07:13.881Z,9.08
2023-05-17T22:09:45.451Z,9.17
2023-05-17T22:12:15.053Z,9.39
2023-05-17T22:14:45.509Z,9.31
2023-05-17T22:17:15.996Z,9.24
2023-05-17T22:19:45.616Z,9.14
2023-05-17T22:22:15.412Z,9.29
2023-05-17T22:24:45.307Z,9.16
2023-05-17T22:27:15.449Z,9.09
2023-05-17T22:29:46.026Z,9.02
2023-05-17T22:32:16.434Z,9.22
2023-05-17T22:34:46.705Z,9.28
2023-05-17T22:37:17.677Z,9.12
2023-05-17T22:39:47.560Z,9.02
2023-05-17T22:42:17.222Z,8.98
2023-05-17T22:44:47.269Z,8.92
2023-05-17T22:47:17.116Z,8.88
2023-05-17T22:49:46.936Z,8.98
2023-05-17T22:52:18.486Z,8.93
2023-05-17T22:54:48.348Z,8.97
2023-05-17T22:57:18.438Z,8.99
2023-05-17T22:59:48.344Z,9.06
2023-05-17T23:02:17.942Z,8.96
2023-05-17T23:04:47.872Z,8.89
2023-05-17T23:07:18.160Z,8.89
2023-05-17T23:09:47.700Z,8.74
2023-05-17T23:12:17.586Z,8.75
2023-05-17T23:14:47.492Z,8.71
2023-05-17T23:17:17.224Z,8.67
2023-05-17T23:19:47.105Z,8.64
2023-05-17T23:22:16.775Z,8.56
2023-05-17T23:24:46.624Z,8.53
2023-05-17T23:27:17.889Z,8.58
2023-05-17T23:29:47.721Z,8.66
2023-05-17T23:32:17.496Z,8.53
2023-05-17T23:34:47.422Z,8.44
2023-05-17T23:37:17.714Z,8.45
2023-05-17T23:39:47.804Z,8.32
2023-05-17T23:42:19.055Z,8.36
2023-05-17T23:44:49.323Z,8.24
2023-05-17T23:47:19.181Z,8.12
2023-05-17T23:49:49.110Z,8.07
2023-05-17T23:52:19.185Z,8.03
2023-05-17T23:54:49.226Z,7.98
2023-05-17T23:57:18.995Z,7.89
2023-05-17T23:59:48.838Z,7.84
